createdAt,value
2023-01-19T00:01:09.473Z,88.82
2023-01-19T00:03:37.550Z,88.58
2023-01-19T00:06:07.220Z,88.86
2023-01-19T00:08:35.985Z,89.61
2023-01-19T00:11:05.241Z,89.55
2023-01-19T00:13:33.526Z,89.51
2023-01-19T00:16:01.990Z,89.36
2023-01-19T00:18:30.449Z,90.15
2023-01-19T00:20:58.496Z,89.84
2023-01-19T00:23:26.732Z,88.64
2023-01-19T00:25:54.850Z,89.18
2023-01-19T00:28:22.875Z,89.55
2023-01-19T00:30:52.552Z,89.10
2023-01-19T00:33:20.739Z,88.62
2023-01-19T00:35:53.426Z,89.16
2023-01-19T00:38:21.734Z,89.19
2023-01-19T00:40:50.026Z,89.36
2023-01-19T00:43:18.112Z,88.70
2023-01-19T00:45:46.500Z,88.83
2023-01-19T00:48:14.818Z,89.16
2023-01-19T00:50:43.003Z,89.06
2023-01-19T00:53:11.064Z,88.82
2023-01-19T00:55:39.166Z,88.97
2023-01-19T00:58:07.520Z,89.29
2023-01-19T01:00:35.681Z,89.02
2023-01-19T01:03:04.438Z,89.07
2023-01-19T01:05:33.445Z,89.34
2023-01-19T01:08:01.625Z,89.47
2023-01-19T01:10:29.863Z,89.85
2023-01-19T01:12:59.270Z,90.01
2023-01-19T01:15:27.982Z,89.86
2023-01-19T01:17:57.025Z,89.91
2023-01-19T01:20:28.294Z,90.21
2023-01-19T01:22:57.258Z,90.17
2023-01-19T01:25:28.084Z,89.84
2023-01-19T01:27:56.237Z,90.12
2023-01-19T01:30:24.487Z,90.25
2023-01-19T01:32:52.576Z,90.41
2023-01-19T01:35:20.854Z,90.33
2023-01-19T01:37:49.040Z,90.15
2023-01-19T01:40:19.013Z,89.83
2023-01-19T01:42:47.240Z,90.42
2023-01-19T01:45:30.784Z,90.65
2023-01-19T01:48:28.188Z,90.61
2023-01-19T01:51:25.492Z,90.59
2023-01-19T01:54:16.450Z,90.09
2023-01-19T01:56:48.027Z,89.94
2023-01-19T01:59:45.404Z,90.03
2023-01-19T02:02:39.651Z,90.22
2023-01-19T02:05:13.279Z,90.13
2023-01-19T02:08:12.019Z,90.51
2023-01-19T02:11:00.853Z,90.60
2023-01-19T02:13:30.781Z,90.70
2023-01-19T02:16:03.195Z,90.63
2023-01-19T02:18:32.566Z,90.96
2023-01-19T02:21:19.301Z,91.14
2023-01-19T02:23:50.992Z,90.28
2023-01-19T02:26:30.140Z,90.95
2023-01-19T02:29:19.759Z,91.65
2023-01-19T02:31:47.941Z,91.67
2023-01-19T02:34:18.909Z,91.59
2023-01-19T02:37:02.259Z,91.29
2023-01-19T02:39:36.618Z,91.26
2023-01-19T02:42:13.467Z,91.50
2023-01-19T02:44:45.422Z,92.00
2023-01-19T02:47:14.266Z,91.87
2023-01-19T02:49:42.682Z,92.14
2023-01-19T02:52:18.612Z,92.21
2023-01-19T02:55:15.571Z,92.33
2023-01-19T02:58:13.589Z,92.56
2023-01-19T03:01:20.096Z,92.94
2023-01-19T03:03:57.160Z,92.61
2023-01-19T03:07:09.561Z,92.73
2023-01-19T03:09:48.004Z,92.28
2023-01-19T03:12:37.902Z,92.42
2023-01-19T03:15:35.493Z,92.77
2023-01-19T03:18:08.537Z,93.71
2023-01-19T03:20:38.166Z,94.08
2023-01-19T03:23:11.256Z,94.55
2023-01-19T03:25:43.909Z,94.23
2023-01-19T03:28:15.162Z,94.10
2023-01-19T03:30:48.139Z,94.34
2023-01-19T03:33:22.912Z,94.14
2023-01-19T03:35:54.922Z,93.85
2023-01-19T03:38:27.461Z,93.80
2023-01-19T03:41:02.100Z,93.81
2023-01-19T03:43:31.945Z,93.71
2023-01-19T03:46:01.349Z,93.71
2023-01-19T03:48:29.531Z,93.72
2023-01-19T03:50:58.168Z,93.44
2023-01-19T03:53:26.536Z,92.91
2023-01-19T03:55:55.286Z,93.06
2023-01-19T03:58:23.332Z,93.08
2023-01-19T04:00:51.789Z,93.00
2023-01-19T04:03:20.072Z,92.81
2023-01-19T04:05:48.249Z,93.07
2023-01-19T04:08:16.288Z,93.35
2023-01-19T04:10:45.122Z,93.07
2023-01-19T04:13:13.314Z,92.98
2023-01-19T04:15:41.522Z,92.81
2023-01-19T04:18:09.890Z,93.00
2023-01-19T04:20:38.276Z,93.13
2023-01-19T04:23:06.240Z,93.17
2023-01-19T04:25:34.436Z,93.52
2023-01-19T04:28:02.549Z,93.34
2023-01-19T04:30:31.047Z,93.33
2023-01-19T04:33:00.423Z,93.28
2023-01-19T04:35:28.896Z,92.57
2023-01-19T04:37:57.071Z,91.92
2023-01-19T04:40:25.388Z,92.43
2023-01-19T04:42:54.747Z,92.40
2023-01-19T04:45:22.925Z,92.77
2023-01-19T04:47:52.034Z,93.17
2023-01-19T04:50:20.650Z,93.07
2023-01-19T04:52:50.058Z,93.23
2023-01-19T04:55:18.621Z,93.15
2023-01-19T04:57:46.843Z,93.20
2023-01-19T05:00:15.707Z,93.08
2023-01-19T05:02:45.396Z,93.47
2023-01-19T05:05:13.876Z,93.65
2023-01-19T05:07:43.217Z,93.50
2023-01-19T05:10:12.829Z,93.16
2023-01-19T05:12:42.329Z,94.41
2023-01-19T05:15:11.342Z,94.58
2023-01-19T05:17:39.880Z,94.50
2023-01-19T05:20:11.033Z,93.82
2023-01-19T05:22:39.470Z,93.84
2023-01-19T05:25:11.555Z,93.75
2023-01-19T05:27:39.867Z,93.64
2023-01-19T05:30:09.025Z,93.79
2023-01-19T05:32:37.244Z,93.87
2023-01-19T05:35:06.934Z,94.27
2023-01-19T05:37:35.022Z,93.98
2023-01-19T05:40:03.405Z,93.92
2023-01-19T05:42:33.032Z,94.15
2023-01-19T05:45:01.192Z,93.76
2023-01-19T05:47:30.928Z,93.05
2023-01-19T05:49:59.039Z,92.42
2023-01-19T05:52:27.133Z,92.22
2023-01-19T05:54:55.445Z,92.13
2023-01-19T05:57:24.194Z,92.05
2023-01-19T05:59:52.771Z,91.76
2023-01-19T06:02:21.772Z,91.32
2023-01-19T06:04:49.890Z,91.84
2023-01-19T06:07:18.161Z,91.57
2023-01-19T06:09:46.524Z,91.05
2023-01-19T06:12:15.191Z,90.99
2023-01-19T06:14:43.441Z,91.03
2023-01-19T06:17:11.714Z,90.92
2023-01-19T06:19:39.942Z,90.59
2023-01-19T06:22:10.579Z,90.84
2023-01-19T06:24:38.636Z,90.83
2023-01-19T06:27:06.744Z,91.25
2023-01-19T06:29:35.120Z,91.40
2023-01-19T06:32:03.414Z,91.29
2023-01-19T06:34:31.686Z,90.98
2023-01-19T06:37:00.150Z,91.03
2023-01-19T06:39:28.358Z,91.54
2023-01-19T06:41:56.512Z,92.05
2023-01-19T06:44:26.182Z,91.96
2023-01-19T06:47:15.449Z,92.26
2023-01-19T06:49:42.919Z,92.52
2023-01-19T06:52:14.176Z,92.03
2023-01-19T06:54:45.464Z,92.45
2023-01-19T06:57:14.455Z,92.38
2023-01-19T06:59:42.788Z,92.47
2023-01-19T07:02:26.165Z,92.33
2023-01-19T07:04:57.024Z,92.28
2023-01-19T07:07:26.162Z,91.74
2023-01-19T07:09:54.363Z,91.87
2023-01-19T07:12:23.412Z,91.82
2023-01-19T07:14:52.979Z,91.85
2023-01-19T07:17:21.136Z,92.25
2023-01-19T07:19:50.047Z,92.20
2023-01-19T07:22:18.678Z,91.92
2023-01-19T07:24:47.317Z,92.12
2023-01-19T07:27:16.573Z,92.26
2023-01-19T07:29:45.370Z,92.20
2023-01-19T07:32:13.498Z,91.95
2023-01-19T07:34:41.763Z,91.80
2023-01-19T07:37:10.128Z,92.36
2023-01-19T07:39:38.240Z,92.70
2023-01-19T07:42:07.518Z,93.04
2023-01-19T07:44:37.692Z,92.48
2023-01-19T07:47:11.457Z,92.24
2023-01-19T07:49:40.166Z,92.19
2023-01-19T07:52:08.342Z,91.75
2023-01-19T07:54:36.804Z,92.46
2023-01-19T07:57:05.197Z,92.82
2023-01-19T07:59:33.607Z,91.94
2023-01-19T08:02:02.168Z,92.32
2023-01-19T08:04:30.486Z,91.61
2023-01-19T08:06:58.714Z,91.72
2023-01-19T08:09:27.401Z,92.01
2023-01-19T08:11:55.600Z,90.53
2023-01-19T08:14:23.786Z,87.92
2023-01-19T08:16:52.041Z,88.60
2023-01-19T08:19:20.540Z,88.08
2023-01-19T08:21:48.759Z,88.12
2023-01-19T08:24:22.949Z,88.26
2023-01-19T08:26:59.409Z,88.06
2023-01-19T08:29:30.921Z,87.31
2023-01-19T08:32:01.915Z,87.21
2023-01-19T08:34:32.094Z,86.39
2023-01-19T08:37:00.593Z,85.78
2023-01-19T08:39:28.971Z,85.93
2023-01-19T08:41:59.385Z,85.64
2023-01-19T08:44:27.983Z,84.74
2023-01-19T08:46:56.125Z,84.65
2023-01-19T08:49:24.210Z,82.21
2023-01-19T08:51:52.442Z,81.43
2023-01-19T08:54:21.891Z,82.20
2023-01-19T08:56:50.510Z,81.20
2023-01-19T08:59:18.673Z,80.45
2023-01-19T09:01:47.224Z,80.43
2023-01-19T09:04:15.877Z,80.71
2023-01-19T09:06:44.167Z,81.15
2023-01-19T09:09:12.693Z,80.94
2023-01-19T09:11:40.940Z,81.16
2023-01-19T09:14:08.986Z,81.84
2023-01-19T09:16:37.415Z,81.40
2023-01-19T09:19:08.716Z,80.10
2023-01-19T09:21:37.350Z,78.94
2023-01-19T09:24:05.629Z,79.78
2023-01-19T09:26:33.887Z,78.82
2023-01-19T09:29:02.570Z,79.04
2023-01-19T09:31:31.235Z,79.87
2023-01-19T09:33:59.566Z,78.91
2023-01-19T09:36:27.913Z,79.34
2023-01-19T09:38:56.081Z,79.25
2023-01-19T09:41:26.451Z,79.38
2023-01-19T09:44:00.752Z,79.58
2023-01-19T09:46:41.713Z,79.83
2023-01-19T09:49:20.115Z,79.74
2023-01-19T09:51:51.223Z,79.49
2023-01-19T09:54:29.516Z,78.66
2023-01-19T09:56:57.764Z,79.37
2023-01-19T09:59:29.981Z,79.86
2023-01-19T10:02:23.887Z,79.94
2023-01-19T10:05:21.766Z,80.27
2023-01-19T10:08:45.014Z,80.44
2023-01-19T10:11:52.127Z,80.91
2023-01-19T10:14:48.169Z,81.21
2023-01-19T10:17:34.484Z,81.40
2023-01-19T10:20:07.297Z,81.67
2023-01-19T10:22:36.005Z,82.44
2023-01-19T10:25:13.514Z,82.23
2023-01-19T10:27:43.017Z,82.19
2023-01-19T10:30:21.397Z,82.21
2023-01-19T10:32:50.424Z,82.24
2023-01-19T10:35:24.435Z,82.33
2023-01-19T10:38:01.967Z,82.46
2023-01-19T10:40:43.106Z,83.01
2023-01-19T10:43:47.976Z,83.17
2023-01-19T10:46:35.675Z,83.71
2023-01-19T10:49:05.159Z,83.69
2023-01-19T10:51:33.587Z,83.78
2023-01-19T10:54:05.346Z,84.36
2023-01-19T10:56:38.614Z,84.44
2023-01-19T10:59:07.635Z,83.98
2023-01-19T11:01:38.833Z,84.27
2023-01-19T11:04:28.418Z,84.34
2023-01-19T11:07:25.960Z,84.16
2023-01-19T11:10:16.269Z,84.18
2023-01-19T11:12:53.151Z,84.03
2023-01-19T11:15:28.525Z,83.88
2023-01-19T11:17:57.402Z,83.35
2023-01-19T11:20:39.036Z,83.08
2023-01-19T11:23:33.980Z,82.93
2023-01-19T11:26:06.018Z,82.83
2023-01-19T11:28:46.875Z,82.52
2023-01-19T11:31:15.558Z,82.62
2023-01-19T11:33:51.219Z,82.82
2023-01-19T11:36:26.316Z,83.06
2023-01-19T11:38:57.080Z,82.68
2023-01-19T11:41:29.961Z,82.21
2023-01-19T11:44:09.679Z,82.40
2023-01-19T11:46:41.882Z,82.64
2023-01-19T11:49:22.851Z,82.68
2023-01-19T11:52:26.908Z,82.71
2023-01-19T11:55:23.828Z,82.77
2023-01-19T11:57:54.755Z,82.81
2023-01-19T12:00:45.580Z,83.16
2023-01-19T12:03:34.887Z,83.26
2023-01-19T12:06:20.434Z,83.22
2023-01-19T12:08:54.211Z,83.45
2023-01-19T12:11:31.812Z,83.61
2023-01-19T12:14:00.493Z,83.77
2023-01-19T12:16:34.804Z,84.79
2023-01-19T12:19:11.796Z,85.05
2023-01-19T12:21:40.592Z,84.79
2023-01-19T12:24:16.437Z,82.31
2023-01-19T12:26:48.563Z,81.24
2023-01-19T12:29:22.795Z,81.33
2023-01-19T12:32:16.896Z,80.57
2023-01-19T12:34:50.122Z,81.04
2023-01-19T12:37:30.815Z,81.29
2023-01-19T12:40:05.701Z,81.00
2023-01-19T12:42:34.774Z,77.90
2023-01-19T12:45:08.805Z,76.97
2023-01-19T12:47:38.141Z,72.51
2023-01-19T12:50:16.555Z,73.66
2023-01-19T12:52:51.842Z,73.43
2023-01-19T12:55:24.835Z,72.32
2023-01-19T12:57:58.700Z,73.03
2023-01-19T13:00:34.365Z,73.58
2023-01-19T13:03:19.234Z,71.72
2023-01-19T13:05:56.149Z,71.40
2023-01-19T13:08:58.427Z,72.99
2023-01-19T13:11:29.347Z,72.62
2023-01-19T13:13:59.554Z,73.79
2023-01-19T13:16:28.865Z,72.62
2023-01-19T13:19:06.589Z,71.14
2023-01-19T13:21:42.937Z,69.99
2023-01-19T13:24:17.692Z,68.74
2023-01-19T13:26:48.844Z,66.76
2023-01-19T13:29:38.144Z,64.79
2023-01-19T13:32:19.552Z,66.45
2023-01-19T13:35:02.254Z,64.50
2023-01-19T13:37:43.853Z,66.91
2023-01-19T13:40:38.853Z,65.58
2023-01-19T13:43:33.450Z,66.89
2023-01-19T13:46:02.265Z,68.07
2023-01-19T13:48:32.088Z,69.10
2023-01-19T13:51:07.092Z,69.67
2023-01-19T13:53:36.797Z,69.36
2023-01-19T13:56:22.855Z,68.45
2023-01-19T13:59:11.967Z,66.16
2023-01-19T14:01:42.936Z,67.22
2023-01-19T14:04:26.012Z,67.86
2023-01-19T14:06:57.887Z,65.40
2023-01-19T14:09:26.086Z,64.65
2023-01-19T14:12:14.808Z,66.07
2023-01-19T14:14:46.976Z,65.29
2023-01-19T14:17:22.680Z,65.06
2023-01-19T14:19:53.230Z,62.22
2023-01-19T14:22:21.974Z,63.16
2023-01-19T14:24:50.299Z,63.75
2023-01-19T14:27:24.013Z,64.80
2023-01-19T14:30:20.697Z,65.64
2023-01-19T14:32:49.029Z,65.46
2023-01-19T14:35:25.171Z,65.96
2023-01-19T14:37:53.663Z,65.97
2023-01-19T14:40:24.711Z,65.54
2023-01-19T14:43:06.705Z,63.88
2023-01-19T14:45:41.473Z,65.17
2023-01-19T14:48:22.880Z,63.44
2023-01-19T14:51:03.114Z,62.77
2023-01-19T14:53:37.544Z,61.65
2023-01-19T14:56:07.621Z,62.70
2023-01-19T14:58:37.395Z,62.94
2023-01-19T15:01:07.037Z,62.38
2023-01-19T15:03:44.298Z,62.78
2023-01-19T15:06:21.473Z,62.23
2023-01-19T15:08:50.543Z,63.36
2023-01-19T15:11:28.149Z,63.74
2023-01-19T15:13:56.578Z,65.06
2023-01-19T15:16:26.075Z,65.75
2023-01-19T15:18:54.617Z,66.80
2023-01-19T15:21:26.790Z,67.75
2023-01-19T15:23:55.815Z,67.68
2023-01-19T15:26:27.017Z,68.34
2023-01-19T15:28:56.935Z,68.42
2023-01-19T15:31:26.403Z,68.61
2023-01-19T15:33:54.893Z,69.24
2023-01-19T15:36:24.525Z,68.53
2023-01-19T15:38:52.654Z,68.18
2023-01-19T15:41:26.775Z,68.50
2023-01-19T15:43:54.907Z,67.96
2023-01-19T15:46:25.378Z,67.89
2023-01-19T15:48:54.484Z,68.05
2023-01-19T15:51:27.581Z,67.67
2023-01-19T15:53:58.061Z,67.17
2023-01-19T15:56:29.122Z,66.95
2023-01-19T15:58:58.867Z,67.38
2023-01-19T16:01:32.396Z,68.20
2023-01-19T16:04:05.072Z,67.79
2023-01-19T16:06:34.040Z,67.96
2023-01-19T16:09:03.934Z,67.71
2023-01-19T16:11:34.373Z,65.87
2023-01-19T16:14:02.852Z,66.66
2023-01-19T16:16:31.233Z,66.46
2023-01-19T16:18:59.462Z,65.43
2023-01-19T16:21:27.811Z,65.43
2023-01-19T16:23:55.934Z,64.98
2023-01-19T16:26:29.106Z,64.73
2023-01-19T16:29:00.034Z,64.10
2023-01-19T16:31:29.664Z,64.25
2023-01-19T16:33:57.784Z,63.72
2023-01-19T16:36:32.578Z,64.58
2023-01-19T16:39:03.856Z,63.76
2023-01-19T16:41:33.734Z,63.92
2023-01-19T16:44:02.685Z,63.27
2023-01-19T16:46:36.729Z,63.68
2023-01-19T16:49:11.628Z,63.70
2023-01-19T16:51:39.818Z,62.88
2023-01-19T16:54:08.335Z,62.43
2023-01-19T16:56:36.369Z,62.03
2023-01-19T16:59:05.617Z,62.24
2023-01-19T17:01:34.119Z,62.53
2023-01-19T17:04:02.373Z,62.07
2023-01-19T17:06:30.827Z,62.03
2023-01-19T17:09:01.184Z,62.45
2023-01-19T17:11:32.634Z,63.10
2023-01-19T17:14:06.554Z,63.75
2023-01-19T17:16:36.076Z,63.97
2023-01-19T17:19:06.457Z,63.93
2023-01-19T17:21:35.064Z,64.21
2023-01-19T17:24:03.256Z,64.26
2023-01-19T17:26:32.159Z,64.36
2023-01-19T17:29:09.149Z,64.36
2023-01-19T17:31:37.856Z,64.16
2023-01-19T17:34:06.369Z,64.63
2023-01-19T17:36:34.651Z,64.97
2023-01-19T17:39:07.575Z,65.17
2023-01-19T17:41:36.265Z,65.13
2023-01-19T17:44:05.930Z,65.67
2023-01-19T17:46:38.849Z,65.79
2023-01-19T17:49:08.242Z,66.07
2023-01-19T17:51:37.192Z,66.13
2023-01-19T17:54:05.899Z,66.46
2023-01-19T17:56:38.957Z,66.61
2023-01-19T17:59:08.353Z,66.74
2023-01-19T18:01:40.196Z,66.79
2023-01-19T18:04:12.006Z,66.93
2023-01-19T18:06:40.310Z,66.55
2023-01-19T18:09:08.567Z,66.41
2023-01-19T18:11:36.897Z,66.34
2023-01-19T18:14:06.852Z,66.22
2023-01-19T18:16:36.037Z,66.37
2023-01-19T18:19:04.362Z,66.50
2023-01-19T18:21:32.509Z,66.75
2023-01-19T18:24:05.280Z,66.55
2023-01-19T18:26:35.075Z,65.94
2023-01-19T18:29:03.286Z,65.37
2023-01-19T18:31:31.555Z,65.32
2023-01-19T18:34:00.048Z,64.27
2023-01-19T18:36:28.625Z,64.05
2023-01-19T18:38:57.144Z,63.63
2023-01-19T18:41:26.869Z,64.16
2023-01-19T18:43:59.904Z,63.12
2023-01-19T18:46:28.439Z,62.91
2023-01-19T18:48:57.597Z,63.52
2023-01-19T18:51:29.272Z,64.20
2023-01-19T18:53:59.377Z,64.07
2023-01-19T18:56:29.425Z,64.32
2023-01-19T18:58:57.662Z,64.17
2023-01-19T19:01:33.110Z,64.05
2023-01-19T19:04:03.595Z,64.39
2023-01-19T19:06:31.813Z,64.53
2023-01-19T19:09:00.275Z,64.76
2023-01-19T19:11:30.075Z,66.89
2023-01-19T19:14:00.849Z,69.45
2023-01-19T19:16:30.351Z,70.95
2023-01-19T19:18:59.399Z,72.23
2023-01-19T19:21:27.765Z,72.38
2023-01-19T19:23:58.147Z,73.26
2023-01-19T19:26:28.401Z,74.73
2023-01-19T19:28:56.743Z,75.15
2023-01-19T19:31:27.703Z,75.25
2023-01-19T19:33:58.087Z,75.31
2023-01-19T19:36:28.158Z,75.94
2023-01-19T19:38:56.319Z,76.12
2023-01-19T19:41:29.714Z,76.16
2023-01-19T19:43:58.627Z,76.57
2023-01-19T19:46:27.551Z,76.50
2023-01-19T19:48:55.622Z,76.55
2023-01-19T19:51:27.286Z,77.29
2023-01-19T19:53:58.878Z,77.78
2023-01-19T19:56:30.060Z,77.58
2023-01-19T19:58:59.828Z,77.66
2023-01-19T20:01:33.783Z,77.91
2023-01-19T20:04:12.358Z,78.72
2023-01-19T20:06:44.778Z,78.40
2023-01-19T20:09:16.380Z,78.63
2023-01-19T20:11:46.780Z,78.82
2023-01-19T20:14:16.407Z,78.97
2023-01-19T20:16:45.888Z,79.08
2023-01-19T20:19:14.311Z,78.86
2023-01-19T20:21:43.376Z,79.18
2023-01-19T20:24:19.223Z,80.14
2023-01-19T20:26:50.642Z,80.81
2023-01-19T20:29:20.309Z,81.07
2023-01-19T20:31:52.837Z,81.75
2023-01-19T20:34:24.324Z,81.91
2023-01-19T20:36:54.114Z,83.51
2023-01-19T20:39:24.457Z,83.51
2023-01-19T20:41:53.059Z,83.41
2023-01-19T20:44:24.588Z,84.09
2023-01-19T20:46:54.716Z,84.41
2023-01-19T20:49:23.299Z,84.59
2023-01-19T20:51:52.327Z,85.31
2023-01-19T20:54:24.665Z,86.68
2023-01-19T20:56:53.570Z,86.42
2023-01-19T20:59:22.397Z,86.12
2023-01-19T21:01:50.824Z,86.34
2023-01-19T21:04:19.603Z,86.55
2023-01-19T21:06:48.510Z,85.88
2023-01-19T21:09:18.732Z,86.23
2023-01-19T21:11:47.301Z,87.27
2023-01-19T21:14:15.627Z,86.39
2023-01-19T21:16:44.093Z,86.31
2023-01-19T21:19:12.469Z,85.98
2023-01-19T21:21:40.593Z,85.75
2023-01-19T21:24:10.406Z,86.69
2023-01-19T21:26:38.580Z,86.13
2023-01-19T21:29:07.005Z,86.32
2023-01-19T21:31:35.304Z,86.64
2023-01-19T21:34:03.444Z,87.01
2023-01-19T21:36:32.851Z,87.72
2023-01-19T21:39:01.265Z,88.05
2023-01-19T21:41:30.353Z,88.04
2023-01-19T21:44:00.602Z,88.21
2023-01-19T21:46:30.561Z,87.49
2023-01-19T21:49:04.963Z,87.73
2023-01-19T21:51:35.857Z,88.04
2023-01-19T21:54:06.447Z,88.29
2023-01-19T21:56:35.665Z,88.33
2023-01-19T21:59:05.402Z,87.81
2023-01-19T22:01:34.921Z,88.09
2023-01-19T22:04:03.300Z,87.95
2023-01-19T22:06:31.691Z,87.71
2023-01-19T22:09:00.890Z,88.02
2023-01-19T22:11:30.259Z,88.54
2023-01-19T22:14:02.486Z,88.17
2023-01-19T22:16:31.551Z,87.71
2023-01-19T22:19:02.500Z,88.02
2023-01-19T22:21:35.969Z,88.02
2023-01-19T22:24:05.486Z,88.24
2023-01-19T22:26:35.208Z,87.92
2023-01-19T22:29:05.589Z,87.90
2023-01-19T22:31:34.000Z,87.74
2023-01-19T22:34:02.284Z,87.64
2023-01-19T22:36:34.147Z,87.11
2023-01-19T22:39:09.600Z,87.39
2023-01-19T22:41:44.077Z,86.85
2023-01-19T22:44:18.301Z,87.27
2023-01-19T22:46:47.640Z,87.25
2023-01-19T22:49:18.571Z,87.12
2023-01-19T22:51:47.997Z,86.58
2023-01-19T22:54:16.163Z,86.70
2023-01-19T22:56:45.961Z,87.15
2023-01-19T22:59:14.141Z,86.80
2023-01-19T23:01:43.674Z,86.79
2023-01-19T23:04:15.196Z,86.14
2023-01-19T23:06:46.976Z,85.89
2023-01-19T23:09:15.487Z,86.10
2023-01-19T23:11:50.299Z,86.10
2023-01-19T23:14:21.389Z,86.48
2023-01-19T23:16:49.515Z,86.64
2023-01-19T23:19:18.768Z,86.31
2023-01-19T23:21:51.125Z,86.92
2023-01-19T23:24:19.799Z,87.04
2023-01-19T23:26:49.782Z,86.98
2023-01-19T23:29:18.229Z,86.72
2023-01-19T23:31:48.953Z,87.24
2023-01-19T23:34:17.557Z,87.40
2023-01-19T23:36:45.777Z,87.50
2023-01-19T23:39:16.871Z,87.28
2023-01-19T23:41:45.448Z,86.94
2023-01-19T23:44:14.524Z,87.04
2023-01-19T23:46:44.055Z,87.40
2023-01-19T23:49:13.151Z,87.28
2023-01-19T23:51:41.796Z,87.21
2023-01-19T23:54:12.294Z,87.48
2023-01-19T23:56:42.722Z,87.14
2023-01-19T23:59:13.618Z,87.32
